sensor_id;sensor_type;location;lat;lon;timestamp;temperature;humidity
69009;SHT31;56065;52.472;13.380;2022-12-18T00:01:25;-3.19;83.68
69009;SHT31;56065;52.472;13.380;2022-12-18T00:03:52;-3.12;83.89
69009;SHT31;56065;52.472;13.380;2022-12-18T00:06:19;-3.09;83.14
69009;SHT31;56065;52.472;13.380;2022-12-18T00:08:44;-3.08;82.80
69009;SHT31;56065;52.472;13.380;2022-12-18T00:11:12;-3.15;82.66
69009;SHT31;56065;52.472;13.380;2022-12-18T00:13:38;-3.16;82.93
69009;SHT31;56065;52.472;13.380;2022-12-18T00:16:06;-3.14;82.66
69009;SHT31;56065;52.472;13.380;2022-12-18T00:18:32;-3.25;82.78
69009;SHT31;56065;52.472;13.380;2022-12-18T00:20:59;-3.49;83.32
69009;SHT31;56065;52.472;13.380;2022-12-18T00:23:26;-3.25;83.12
69009;SHT31;56065;52.472;13.380;2022-12-18T00:25:51;-3.36;83.09
69009;SHT31;56065;52.472;13.380;2022-12-18T00:28:17;-3.32;82.84
69009;SHT31;56065;52.472;13.380;2022-12-18T00:30:42;-3.34;82.62
69009;SHT31;56065;52.472;13.380;2022-12-18T00:33:07;-3.41;82.34
69009;SHT31;56065;52.472;13.380;2022-12-18T00:35:33;-3.51;82.55
69009;SHT31;56065;52.472;13.380;2022-12-18T00:37:58;-3.46;82.19
69009;SHT31;56065;52.472;13.380;2022-12-18T00:40:23;-3.45;82.04
69009;SHT31;56065;52.472;13.380;2022-12-18T00:42:49;-3.49;82.25
69009;SHT31;56065;52.472;13.380;2022-12-18T00:45:20;-3.72;82.86
69009;SHT31;56065;52.472;13.380;2022-12-18T00:47:49;-3.82;83.43
69009;SHT31;56065;52.472;13.380;2022-12-18T00:50:14;-3.59;82.95
69009;SHT31;56065;52.472;13.380;2022-12-18T00:52:40;-3.82;83.53
69009;SHT31;56065;52.472;13.380;2022-12-18T00:55:05;-3.74;83.40
69009;SHT31;56065;52.472;13.380;2022-12-18T00:57:31;-3.56;83.19
69009;SHT31;56065;52.472;13.380;2022-12-18T00:59:56;-3.43;82.79
69009;SHT31;56065;52.472;13.380;2022-12-18T01:02:22;-3.62;82.75
69009;SHT31;56065;52.472;13.380;2022-12-18T01:04:48;-3.48;82.89
69009;SHT31;56065;52.472;13.380;2022-12-18T01:07:13;-3.53;82.68
69009;SHT31;56065;52.472;13.380;2022-12-18T01:09:38;-3.56;82.65
69009;SHT31;56065;52.472;13.380;2022-12-18T01:12:04;-3.67;82.37
69009;SHT31;56065;52.472;13.380;2022-12-18T01:14:29;-3.76;82.81
69009;SHT31;56065;52.472;13.380;2022-12-18T01:16:55;-3.70;82.47
69009;SHT31;56065;52.472;13.380;2022-12-18T01:19:20;-3.72;82.46
69009;SHT31;56065;52.472;13.380;2022-12-18T01:21:45;-3.84;82.78
69009;SHT31;56065;52.472;13.380;2022-12-18T01:24:11;-3.72;82.61
69009;SHT31;56065;52.472;13.380;2022-12-18T01:26:37;-3.74;82.61
69009;SHT31;56065;52.472;13.380;2022-12-18T01:29:02;-3.73;82.96
69009;SHT31;56065;52.472;13.380;2022-12-18T01:31:30;-3.83;83.34
69009;SHT31;56065;52.472;13.380;2022-12-18T01:33:56;-3.67;82.96
69009;SHT31;56065;52.472;13.380;2022-12-18T01:36:27;-3.59;82.77
69009;SHT31;56065;52.472;13.380;2022-12-18T01:38:53;-3.52;82.34
69009;SHT31;56065;52.472;13.380;2022-12-18T01:41:24;-3.55;82.40
69009;SHT31;56065;52.472;13.380;2022-12-18T01:43:57;-3.52;82.58
69009;SHT31;56065;52.472;13.380;2022-12-18T01:46:24;-3.56;81.98
69009;SHT31;56065;52.472;13.380;2022-12-18T01:49:08;-3.70;82.41
69009;SHT31;56065;52.472;13.380;2022-12-18T01:51:33;-3.64;82.54
69009;SHT31;56065;52.472;13.380;2022-12-18T01:53:59;-3.60;82.53
69009;SHT31;56065;52.472;13.380;2022-12-18T01:56:24;-3.56;82.33
69009;SHT31;56065;52.472;13.380;2022-12-18T01:58:57;-3.49;82.37
69009;SHT31;56065;52.472;13.380;2022-12-18T02:01:25;-3.69;82.35
69009;SHT31;56065;52.472;13.380;2022-12-18T02:03:51;-3.74;82.37
69009;SHT31;56065;52.472;13.380;2022-12-18T02:06:26;-3.74;82.42
69009;SHT31;56065;52.472;13.380;2022-12-18T02:09:15;-3.72;82.46
69009;SHT31;56065;52.472;13.380;2022-12-18T02:14:27;-3.66;82.35
69009;SHT31;56065;52.472;13.380;2022-12-18T02:17:21;-3.74;81.98
69009;SHT31;56065;52.472;13.380;2022-12-18T02:20:05;-3.70;82.02
69009;SHT31;56065;52.472;13.380;2022-12-18T02:28:27;-3.90;82.48
69009;SHT31;56065;52.472;13.380;2022-12-18T02:30:56;-3.79;82.65
69009;SHT31;56065;52.472;13.380;2022-12-18T02:33:23;-3.70;82.39
69009;SHT31;56065;52.472;13.380;2022-12-18T02:35:51;-3.60;82.21
69009;SHT31;56065;52.472;13.380;2022-12-18T02:38:18;-3.74;82.08
69009;SHT31;56065;52.472;13.380;2022-12-18T02:40:44;-3.55;82.29
69009;SHT31;56065;52.472;13.380;2022-12-18T02:43:14;-3.53;82.02
69009;SHT31;56065;52.472;13.380;2022-12-18T02:45:58;-3.43;81.80
69009;SHT31;56065;52.472;13.380;2022-12-18T02:48:34;-3.52;81.77
69009;SHT31;56065;52.472;13.380;2022-12-18T02:51:16;-3.53;81.50
69009;SHT31;56065;52.472;13.380;2022-12-18T02:56:15;-3.56;81.43
69009;SHT31;56065;52.472;13.380;2022-12-18T02:59:02;-3.52;81.50
69009;SHT31;56065;52.472;13.380;2022-12-18T03:01:41;-3.41;81.56
69009;SHT31;56065;52.472;13.380;2022-12-18T03:04:16;-3.62;81.45
69009;SHT31;56065;52.472;13.380;2022-12-18T03:06:46;-3.49;81.22
69009;SHT31;56065;52.472;13.380;2022-12-18T03:09:17;-3.55;80.59
69009;SHT31;56065;52.472;13.380;2022-12-18T03:11:48;-3.67;81.12
69009;SHT31;56065;52.472;13.380;2022-12-18T03:14:34;-3.77;81.41
69009;SHT31;56065;52.472;13.380;2022-12-18T03:17:05;-3.73;81.44
69009;SHT31;56065;52.472;13.380;2022-12-18T03:19:33;-3.83;81.72
69009;SHT31;56065;52.472;13.380;2022-12-18T03:22:02;-3.76;81.92
69009;SHT31;56065;52.472;13.380;2022-12-18T03:24:31;-3.76;81.72
69009;SHT31;56065;52.472;13.380;2022-12-18T03:27:01;-3.84;81.91
69009;SHT31;56065;52.472;13.380;2022-12-18T03:29:35;-3.93;82.07
69009;SHT31;56065;52.472;13.380;2022-12-18T03:32:31;-3.79;82.03
69009;SHT31;56065;52.472;13.380;2022-12-18T03:35:02;-3.84;81.73
69009;SHT31;56065;52.472;13.380;2022-12-18T03:37:28;-3.70;81.58
69009;SHT31;56065;52.472;13.380;2022-12-18T03:39:57;-3.76;81.53
69009;SHT31;56065;52.472;13.380;2022-12-18T03:42:29;-3.76;81.18
69009;SHT31;56065;52.472;13.380;2022-12-18T03:45:03;-3.93;81.45
69009;SHT31;56065;52.472;13.380;2022-12-18T03:50:20;-3.98;81.68
69009;SHT31;56065;52.472;13.380;2022-12-18T03:55:16;-4.21;82.09
69009;SHT31;56065;52.472;13.380;2022-12-18T03:57:44;-4.19;82.36
69009;SHT31;56065;52.472;13.380;2022-12-18T04:00:14;-4.18;82.72
69009;SHT31;56065;52.472;13.380;2022-12-18T04:02:47;-4.05;82.90
69009;SHT31;56065;52.472;13.380;2022-12-18T04:05:14;-3.97;82.25
69009;SHT31;56065;52.472;13.380;2022-12-18T04:07:40;-3.95;82.04
69009;SHT31;56065;52.472;13.380;2022-12-18T04:10:07;-4.01;82.24
69009;SHT31;56065;52.472;13.380;2022-12-18T04:12:37;-3.94;81.93
69009;SHT31;56065;52.472;13.380;2022-12-18T04:15:03;-4.14;82.08
69009;SHT31;56065;52.472;13.380;2022-12-18T04:17:29;-4.29;82.23
69009;SHT31;56065;52.472;13.380;2022-12-18T04:19:54;-4.27;82.58
69009;SHT31;56065;52.472;13.380;2022-12-18T04:22:19;-4.41;82.99
69009;SHT31;56065;52.472;13.380;2022-12-18T04:24:44;-4.44;83.06
69009;SHT31;56065;52.472;13.380;2022-12-18T04:27:10;-4.29;82.78
69009;SHT31;56065;52.472;13.380;2022-12-18T04:29:35;-4.25;82.36
69009;SHT31;56065;52.472;13.380;2022-12-18T04:32:00;-4.29;82.37
69009;SHT31;56065;52.472;13.380;2022-12-18T04:34:26;-4.32;82.52
69009;SHT31;56065;52.472;13.380;2022-12-18T04:36:51;-4.27;82.21
69009;SHT31;56065;52.472;13.380;2022-12-18T04:39:16;-4.51;82.74
69009;SHT31;56065;52.472;13.380;2022-12-18T04:41:42;-4.41;82.77
69009;SHT31;56065;52.472;13.380;2022-12-18T04:44:07;-4.69;83.17
69009;SHT31;56065;52.472;13.380;2022-12-18T04:46:33;-4.58;83.59
69009;SHT31;56065;52.472;13.380;2022-12-18T04:48:58;-4.40;82.86
69009;SHT31;56065;52.472;13.380;2022-12-18T04:51:23;-4.44;82.82
69009;SHT31;56065;52.472;13.380;2022-12-18T04:53:49;-4.35;82.89
69009;SHT31;56065;52.472;13.380;2022-12-18T04:56:15;-4.40;82.35
69009;SHT31;56065;52.472;13.380;2022-12-18T04:58:41;-4.52;83.04
69009;SHT31;56065;52.472;13.380;2022-12-18T05:01:07;-4.69;83.45
69009;SHT31;56065;52.472;13.380;2022-12-18T05:03:33;-4.55;83.49
69009;SHT31;56065;52.472;13.380;2022-12-18T05:05:59;-4.59;83.54
69009;SHT31;56065;52.472;13.380;2022-12-18T05:08:24;-4.64;83.64
69009;SHT31;56065;52.472;13.380;2022-12-18T05:10:58;-4.65;83.57
69009;SHT31;56065;52.472;13.380;2022-12-18T05:13:24;-4.71;83.70
69009;SHT31;56065;52.472;13.380;2022-12-18T05:15:53;-4.61;83.77
69009;SHT31;56065;52.472;13.380;2022-12-18T05:18:18;-4.41;83.18
69009;SHT31;56065;52.472;13.380;2022-12-18T05:20:44;-4.28;82.85
69009;SHT31;56065;52.472;13.380;2022-12-18T05:23:09;-4.32;82.81
69009;SHT31;56065;52.472;13.380;2022-12-18T05:25:34;-4.22;82.53
69009;SHT31;56065;52.472;13.380;2022-12-18T05:27:59;-4.18;82.71
69009;SHT31;56065;52.472;13.380;2022-12-18T05:30:25;-4.21;82.79
69009;SHT31;56065;52.472;13.380;2022-12-18T05:32:50;-4.14;82.61
69009;SHT31;56065;52.472;13.380;2022-12-18T05:35:16;-4.34;82.78
69009;SHT31;56065;52.472;13.380;2022-12-18T05:37:41;-4.49;83.21
69009;SHT31;56065;52.472;13.380;2022-12-18T05:40:07;-4.38;83.29
69009;SHT31;56065;52.472;13.380;2022-12-18T05:42:32;-4.25;82.78
69009;SHT31;56065;52.472;13.380;2022-12-18T05:44:58;-4.36;83.05
69009;SHT31;56065;52.472;13.380;2022-12-18T05:47:23;-4.38;82.99
69009;SHT31;56065;52.472;13.380;2022-12-18T05:49:49;-4.21;82.98
69009;SHT31;56065;52.472;13.380;2022-12-18T05:52:14;-4.08;82.62
69009;SHT31;56065;52.472;13.380;2022-12-18T05:54:40;-3.95;81.97
69009;SHT31;56065;52.472;13.380;2022-12-18T05:57:05;-4.08;82.05
69009;SHT31;56065;52.472;13.380;2022-12-18T05:59:30;-4.04;81.86
69009;SHT31;56065;52.472;13.380;2022-12-18T06:01:56;-4.10;82.07
69009;SHT31;56065;52.472;13.380;2022-12-18T06:04:21;-4.11;82.26
69009;SHT31;56065;52.472;13.380;2022-12-18T06:06:46;-4.10;82.59
69009;SHT31;56065;52.472;13.380;2022-12-18T06:09:12;-4.07;82.59
69009;SHT31;56065;52.472;13.380;2022-12-18T06:11:38;-4.00;82.15
69009;SHT31;56065;52.472;13.380;2022-12-18T06:14:05;-4.05;82.05
69009;SHT31;56065;52.472;13.380;2022-12-18T06:16:31;-4.10;82.34
69009;SHT31;56065;52.472;13.380;2022-12-18T06:18:58;-4.64;83.33
69009;SHT31;56065;52.472;13.380;2022-12-18T06:21:23;-4.51;83.60
69009;SHT31;56065;52.472;13.380;2022-12-18T06:23:49;-4.56;83.72
69009;SHT31;56065;52.472;13.380;2022-12-18T06:26:14;-4.31;83.10
69009;SHT31;56065;52.472;13.380;2022-12-18T06:28:40;-4.22;82.67
69009;SHT31;56065;52.472;13.380;2022-12-18T06:31:06;-4.22;82.63
69009;SHT31;56065;52.472;13.380;2022-12-18T06:33:32;-4.18;82.47
69009;SHT31;56065;52.472;13.380;2022-12-18T06:36:03;-4.38;82.53
69009;SHT31;56065;52.472;13.380;2022-12-18T06:38:29;-4.56;83.69
69009;SHT31;56065;52.472;13.380;2022-12-18T06:40:55;-4.36;83.70
69009;SHT31;56065;52.472;13.380;2022-12-18T06:43:21;-4.28;83.70
69009;SHT31;56065;52.472;13.380;2022-12-18T06:45:46;-4.15;83.37
69009;SHT31;56065;52.472;13.380;2022-12-18T06:48:18;-4.11;82.60
69009;SHT31;56065;52.472;13.380;2022-12-18T06:50:43;-4.18;82.30
69009;SHT31;56065;52.472;13.380;2022-12-18T06:53:09;-4.25;82.73
69009;SHT31;56065;52.472;13.380;2022-12-18T06:55:34;-4.40;83.28
69009;SHT31;56065;52.472;13.380;2022-12-18T06:57:59;-4.31;83.29
69009;SHT31;56065;52.472;13.380;2022-12-18T07:00:25;-4.27;83.31
69009;SHT31;56065;52.472;13.380;2022-12-18T07:02:50;-4.27;83.27
69009;SHT31;56065;52.472;13.380;2022-12-18T07:05:15;-4.28;83.37
69009;SHT31;56065;52.472;13.380;2022-12-18T07:07:41;-4.40;83.95
69009;SHT31;56065;52.472;13.380;2022-12-18T07:10:06;-4.38;84.08
69009;SHT31;56065;52.472;13.380;2022-12-18T07:12:31;-4.13;83.21
69009;SHT31;56065;52.472;13.380;2022-12-18T07:14:57;-4.07;82.91
69009;SHT31;56065;52.472;13.380;2022-12-18T07:17:23;-4.15;82.87
69009;SHT31;56065;52.472;13.380;2022-12-18T07:19:48;-4.15;83.05
69009;SHT31;56065;52.472;13.380;2022-12-18T07:22:13;-4.18;83.32
69009;SHT31;56065;52.472;13.380;2022-12-18T07:24:39;-4.34;83.73
69009;SHT31;56065;52.472;13.380;2022-12-18T07:27:04;-4.55;84.49
69009;SHT31;56065;52.472;13.380;2022-12-18T07:29:29;-4.36;84.22
69009;SHT31;56065;52.472;13.380;2022-12-18T07:31:55;-4.31;84.01
69009;SHT31;56065;52.472;13.380;2022-12-18T07:34:20;-4.25;84.21
69009;SHT31;56065;52.472;13.380;2022-12-18T07:36:45;-4.10;83.75
69009;SHT31;56065;52.472;13.380;2022-12-18T07:39:11;-4.08;83.39
69009;SHT31;56065;52.472;13.380;2022-12-18T07:41:37;-4.13;83.43
69009;SHT31;56065;52.472;13.380;2022-12-18T07:44:02;-4.07;83.55
69009;SHT31;56065;52.472;13.380;2022-12-18T07:46:27;-4.04;83.56
69009;SHT31;56065;52.472;13.380;2022-12-18T07:48:53;-3.94;83.66
69009;SHT31;56065;52.472;13.380;2022-12-18T07:51:18;-3.95;83.42
69009;SHT31;56065;52.472;13.380;2022-12-18T07:53:44;-4.00;83.33
69009;SHT31;56065;52.472;13.380;2022-12-18T07:56:11;-4.05;83.48
69009;SHT31;56065;52.472;13.380;2022-12-18T07:58:37;-4.13;83.93
69009;SHT31;56065;52.472;13.380;2022-12-18T08:03:29;-4.11;84.32
69009;SHT31;56065;52.472;13.380;2022-12-18T08:06:01;-4.19;84.80
69009;SHT31;56065;52.472;13.380;2022-12-18T08:08:27;-3.98;84.50
69009;SHT31;56065;52.472;13.380;2022-12-18T08:10:52;-3.74;84.19
69009;SHT31;56065;52.472;13.380;2022-12-18T08:13:18;-3.56;83.42
69009;SHT31;56065;52.472;13.380;2022-12-18T08:15:43;-3.52;82.89
69009;SHT31;56065;52.472;13.380;2022-12-18T08:18:08;-3.53;83.05
69009;SHT31;56065;52.472;13.380;2022-12-18T08:20:34;-3.42;82.99
69009;SHT31;56065;52.472;13.380;2022-12-18T08:22:59;-3.35;82.69
69009;SHT31;56065;52.472;13.380;2022-12-18T08:25:25;-3.58;82.71
69009;SHT31;56065;52.472;13.380;2022-12-18T08:27:50;-3.53;82.61
69009;SHT31;56065;52.472;13.380;2022-12-18T08:30:16;-3.67;82.99
69009;SHT31;56065;52.472;13.380;2022-12-18T08:32:41;-3.53;82.43
69009;SHT31;56065;52.472;13.380;2022-12-18T08:35:07;-3.76;82.98
69009;SHT31;56065;52.472;13.380;2022-12-18T08:37:33;-3.59;83.27
69009;SHT31;56065;52.472;13.380;2022-12-18T08:39:58;-3.38;82.83
69009;SHT31;56065;52.472;13.380;2022-12-18T08:42:24;-3.36;82.68
69009;SHT31;56065;52.472;13.380;2022-12-18T08:45:08;-3.35;82.15
69009;SHT31;56065;52.472;13.380;2022-12-18T08:47:34;-3.25;82.28
69009;SHT31;56065;52.472;13.380;2022-12-18T08:49:59;-3.32;81.90
69009;SHT31;56065;52.472;13.380;2022-12-18T08:52:25;-3.30;81.88
69009;SHT31;56065;52.472;13.380;2022-12-18T08:54:50;-3.24;81.67
69009;SHT31;56065;52.472;13.380;2022-12-18T08:57:16;-3.32;81.46
69009;SHT31;56065;52.472;13.380;2022-12-18T08:59:41;-3.25;81.78
69009;SHT31;56065;52.472;13.380;2022-12-18T09:02:09;-3.41;82.06
69009;SHT31;56065;52.472;13.380;2022-12-18T09:04:34;-3.21;81.92
69009;SHT31;56065;52.472;13.380;2022-12-18T09:07:00;-3.19;81.74
69009;SHT31;56065;52.472;13.380;2022-12-18T09:09:25;-3.18;81.62
69009;SHT31;56065;52.472;13.380;2022-12-18T09:11:50;-3.21;81.40
69009;SHT31;56065;52.472;13.380;2022-12-18T09:14:16;-3.21;81.63
69009;SHT31;56065;52.472;13.380;2022-12-18T09:16:41;-3.27;82.11
69009;SHT31;56065;52.472;13.380;2022-12-18T09:19:09;-3.11;81.73
69009;SHT31;56065;52.472;13.380;2022-12-18T09:21:35;-3.07;82.03
69009;SHT31;56065;52.472;13.380;2022-12-18T09:24:12;-3.21;82.06
69009;SHT31;56065;52.472;13.380;2022-12-18T09:26:37;-3.67;83.05
69009;SHT31;56065;52.472;13.380;2022-12-18T09:29:03;-3.42;83.54
69009;SHT31;56065;52.472;13.380;2022-12-18T09:31:28;-3.25;82.59
69009;SHT31;56065;52.472;13.380;2022-12-18T09:33:55;-3.15;82.08
69009;SHT31;56065;52.472;13.380;2022-12-18T09:36:20;-3.28;82.28
69009;SHT31;56065;52.472;13.380;2022-12-18T09:38:46;-3.15;82.60
69009;SHT31;56065;52.472;13.380;2022-12-18T09:41:43;-3.01;82.71
69009;SHT31;56065;52.472;13.380;2022-12-18T09:46:42;-3.21;83.36
69009;SHT31;56065;52.472;13.380;2022-12-18T09:49:13;-3.07;83.59
69009;SHT31;56065;52.472;13.380;2022-12-18T09:51:45;-2.88;82.83
69009;SHT31;56065;52.472;13.380;2022-12-18T09:54:25;-2.79;82.58
69009;SHT31;56065;52.472;13.380;2022-12-18T09:56:51;-2.81;82.52
69009;SHT31;56065;52.472;13.380;2022-12-18T10:01:48;-2.97;83.58
69009;SHT31;56065;52.472;13.380;2022-12-18T10:04:14;-2.85;83.00
69009;SHT31;56065;52.472;13.380;2022-12-18T10:06:57;-2.73;82.73
69009;SHT31;56065;52.472;13.380;2022-12-18T10:09:51;-2.81;82.95
69009;SHT31;56065;52.472;13.380;2022-12-18T10:12:34;-2.84;83.77
69009;SHT31;56065;52.472;13.380;2022-12-18T10:15:15;-2.84;84.02
69009;SHT31;56065;52.472;13.380;2022-12-18T10:18:11;-2.76;83.56
69009;SHT31;56065;52.472;13.380;2022-12-18T10:20:44;-2.64;83.58
69009;SHT31;56065;52.472;13.380;2022-12-18T10:23:28;-2.67;83.20
69009;SHT31;56065;52.472;13.380;2022-12-18T10:28:31;-2.43;83.05
69009;SHT31;56065;52.472;13.380;2022-12-18T10:30:56;-2.36;82.91
69009;SHT31;56065;52.472;13.380;2022-12-18T10:33:24;-2.36;82.74
69009;SHT31;56065;52.472;13.380;2022-12-18T10:35:53;-2.13;82.75
69009;SHT31;56065;52.472;13.380;2022-12-18T10:41:00;-1.97;81.93
69009;SHT31;56065;52.472;13.380;2022-12-18T10:46:02;-1.77;82.01
69009;SHT31;56065;52.472;13.380;2022-12-18T10:48:30;-1.60;81.75
69009;SHT31;56065;52.472;13.380;2022-12-18T10:50:56;-1.53;81.48
69009;SHT31;56065;52.472;13.380;2022-12-18T10:53:24;-1.57;81.58
69009;SHT31;56065;52.472;13.380;2022-12-18T10:55:52;-1.72;81.25
69009;SHT31;56065;52.472;13.380;2022-12-18T11:06:22;-1.78;81.55
69009;SHT31;56065;52.472;13.380;2022-12-18T11:09:02;-1.64;81.94
69009;SHT31;56065;52.472;13.380;2022-12-18T11:11:29;-1.56;82.36
69009;SHT31;56065;52.472;13.380;2022-12-18T11:14:04;-1.88;82.84
69009;SHT31;56065;52.472;13.380;2022-12-18T11:16:34;-1.84;82.89
69009;SHT31;56065;52.472;13.380;2022-12-18T11:19:26;-1.71;82.54
69009;SHT31;56065;52.472;13.380;2022-12-18T11:21:53;-2.13;83.10
69009;SHT31;56065;52.472;13.380;2022-12-18T11:24:30;-2.42;83.74
69009;SHT31;56065;52.472;13.380;2022-12-18T11:26:58;-2.03;83.84
69009;SHT31;56065;52.472;13.380;2022-12-18T11:29:33;-1.94;83.31
69009;SHT31;56065;52.472;13.380;2022-12-18T11:34:41;-1.90;83.13
69009;SHT31;56065;52.472;13.380;2022-12-18T11:37:08;-1.90;83.34
69009;SHT31;56065;52.472;13.380;2022-12-18T11:39:38;-1.84;82.74
69009;SHT31;56065;52.472;13.380;2022-12-18T11:50:00;-1.77;82.65
69009;SHT31;56065;52.472;13.380;2022-12-18T11:52:31;-1.82;82.39
69009;SHT31;56065;52.472;13.380;2022-12-18T11:55:01;-1.72;82.11
69009;SHT31;56065;52.472;13.380;2022-12-18T12:00:15;-1.85;82.45
69009;SHT31;56065;52.472;13.380;2022-12-18T12:07:58;-1.68;82.66
69009;SHT31;56065;52.472;13.380;2022-12-18T12:24:46;-1.49;81.99
69009;SHT31;56065;52.472;13.380;2022-12-18T12:27:46;-1.57;81.76
69009;SHT31;56065;52.472;13.380;2022-12-18T12:33:43;-1.47;82.35
69009;SHT31;56065;52.472;13.380;2022-12-18T12:36:17;-1.44;81.86
69009;SHT31;56065;52.472;13.380;2022-12-18T12:45:18;-1.90;82.37
69009;SHT31;56065;52.472;13.380;2022-12-18T12:47:45;-1.68;82.68
69009;SHT31;56065;52.472;13.380;2022-12-18T12:50:16;-1.56;81.89
69009;SHT31;56065;52.472;13.380;2022-12-18T12:52:52;-1.66;82.21
69009;SHT31;56065;52.472;13.380;2022-12-18T12:55:29;-1.61;82.42
69009;SHT31;56065;52.472;13.380;2022-12-18T13:01:07;-1.44;82.35
69009;SHT31;56065;52.472;13.380;2022-12-18T13:06:37;-1.30;81.78
69009;SHT31;56065;52.472;13.380;2022-12-18T13:09:04;-1.60;82.42
69009;SHT31;56065;52.472;13.380;2022-12-18T13:11:41;-1.54;81.82
69009;SHT31;56065;52.472;13.380;2022-12-18T13:14:29;-1.90;83.50
69009;SHT31;56065;52.472;13.380;2022-12-18T13:19:50;-1.66;82.64
69009;SHT31;56065;52.472;13.380;2022-12-18T13:22:25;-1.59;82.50
69009;SHT31;56065;52.472;13.380;2022-12-18T13:24:53;-1.57;82.29
69009;SHT31;56065;52.472;13.380;2022-12-18T13:41:26;-1.23;82.74
69009;SHT31;56065;52.472;13.380;2022-12-18T13:43:55;-1.17;81.99
69009;SHT31;56065;52.472;13.380;2022-12-18T13:46:45;-1.16;81.68
69009;SHT31;56065;52.472;13.380;2022-12-18T13:51:43;-1.60;81.47
69009;SHT31;56065;52.472;13.380;2022-12-18T13:54:24;-1.67;82.45
69009;SHT31;56065;52.472;13.380;2022-12-18T13:56:51;-1.72;82.43
69009;SHT31;56065;52.472;13.380;2022-12-18T14:01:55;-2.08;83.27
69009;SHT31;56065;52.472;13.380;2022-12-18T14:06:51;-1.85;82.65
69009;SHT31;56065;52.472;13.380;2022-12-18T14:09:25;-1.78;82.57
69009;SHT31;56065;52.472;13.380;2022-12-18T14:11:52;-1.91;82.94
69009;SHT31;56065;52.472;13.380;2022-12-18T14:14:41;-1.97;82.83
69009;SHT31;56065;52.472;13.380;2022-12-18T14:17:10;-2.08;83.04
69009;SHT31;56065;52.472;13.380;2022-12-18T14:19:35;-2.21;83.36
69009;SHT31;56065;52.472;13.380;2022-12-18T14:22:01;-2.23;83.72
69009;SHT31;56065;52.472;13.380;2022-12-18T14:24:26;-2.35;83.82
69009;SHT31;56065;52.472;13.380;2022-12-18T14:26:52;-2.38;84.10
69009;SHT31;56065;52.472;13.380;2022-12-18T14:29:29;-2.13;83.70
69009;SHT31;56065;52.472;13.380;2022-12-18T14:32:15;-1.92;82.98
69009;SHT31;56065;52.472;13.380;2022-12-18T14:34:48;-1.87;82.80
69009;SHT31;56065;52.472;13.380;2022-12-18T14:37:17;-2.18;83.24
69009;SHT31;56065;52.472;13.380;2022-12-18T14:39:54;-2.06;83.59
69009;SHT31;56065;52.472;13.380;2022-12-18T14:42:19;-2.16;83.76
69009;SHT31;56065;52.472;13.380;2022-12-18T14:44:45;-1.99;83.58
69009;SHT31;56065;52.472;13.380;2022-12-18T14:47:15;-1.88;83.08
69009;SHT31;56065;52.472;13.380;2022-12-18T14:49:41;-1.88;83.25
69009;SHT31;56065;52.472;13.380;2022-12-18T14:52:21;-1.85;82.96
69009;SHT31;56065;52.472;13.380;2022-12-18T14:54:48;-1.92;83.12
69009;SHT31;56065;52.472;13.380;2022-12-18T14:57:36;-2.19;83.99
69009;SHT31;56065;52.472;13.380;2022-12-18T15:00:11;-2.09;83.47
69009;SHT31;56065;52.472;13.380;2022-12-18T15:02:40;-2.11;83.19
69009;SHT31;56065;52.472;13.380;2022-12-18T15:05:34;-2.18;82.86
69009;SHT31;56065;52.472;13.380;2022-12-18T15:08:00;-2.42;83.14
69009;SHT31;56065;52.472;13.380;2022-12-18T15:10:28;-2.36;83.41
69009;SHT31;56065;52.472;13.380;2022-12-18T15:18:05;-2.39;83.41
69009;SHT31;56065;52.472;13.380;2022-12-18T15:23:14;-2.36;83.31
69009;SHT31;56065;52.472;13.380;2022-12-18T15:25:40;-2.26;83.38
69009;SHT31;56065;52.472;13.380;2022-12-18T15:28:25;-2.36;82.90
69009;SHT31;56065;52.472;13.380;2022-12-18T15:31:02;-2.26;82.96
69009;SHT31;56065;52.472;13.380;2022-12-18T15:33:34;-2.42;83.29
69009;SHT31;56065;52.472;13.380;2022-12-18T15:36:03;-2.45;83.12
69009;SHT31;56065;52.472;13.380;2022-12-18T15:38:30;-2.74;83.57
69009;SHT31;56065;52.472;13.380;2022-12-18T15:40:55;-2.52;83.64
69009;SHT31;56065;52.472;13.380;2022-12-18T15:43:23;-2.57;83.66
69009;SHT31;56065;52.472;13.380;2022-12-18T15:48:25;-2.62;83.92
69009;SHT31;56065;52.472;13.380;2022-12-18T15:50:52;-2.42;83.80
69009;SHT31;56065;52.472;13.380;2022-12-18T15:53:18;-2.36;83.57
69009;SHT31;56065;52.472;13.380;2022-12-18T15:55:44;-2.33;83.38
69009;SHT31;56065;52.472;13.380;2022-12-18T15:58:28;-2.43;83.15
69009;SHT31;56065;52.472;13.380;2022-12-18T16:00:55;-2.28;83.17
69009;SHT31;56065;52.472;13.380;2022-12-18T16:03:21;-2.23;82.99
69009;SHT31;56065;52.472;13.380;2022-12-18T16:05:47;-2.50;82.61
69009;SHT31;56065;52.472;13.380;2022-12-18T16:08:12;-2.49;83.10
69009;SHT31;56065;52.472;13.380;2022-12-18T16:10:37;-2.33;82.83
69009;SHT31;56065;52.472;13.380;2022-12-18T16:13:03;-2.32;82.70
69009;SHT31;56065;52.472;13.380;2022-12-18T16:15:28;-2.21;82.53
69009;SHT31;56065;52.472;13.380;2022-12-18T16:17:54;-2.23;82.49
69009;SHT31;56065;52.472;13.380;2022-12-18T16:20:21;-2.15;82.43
69009;SHT31;56065;52.472;13.380;2022-12-18T16:22:47;-2.18;82.05
69009;SHT31;56065;52.472;13.380;2022-12-18T16:25:23;-2.39;82.54
69009;SHT31;56065;52.472;13.380;2022-12-18T16:27:49;-2.35;82.80
69009;SHT31;56065;52.472;13.380;2022-12-18T16:30:19;-2.36;82.47
69009;SHT31;56065;52.472;13.380;2022-12-18T16:32:44;-2.42;82.47
69009;SHT31;56065;52.472;13.380;2022-12-18T16:35:11;-2.84;83.39
69009;SHT31;56065;52.472;13.380;2022-12-18T16:37:38;-2.71;83.10
69009;SHT31;56065;52.472;13.380;2022-12-18T16:40:04;-2.67;83.18
69009;SHT31;56065;52.472;13.380;2022-12-18T16:42:29;-2.90;83.83
69009;SHT31;56065;52.472;13.380;2022-12-18T16:44:55;-2.76;83.56
69009;SHT31;56065;52.472;13.380;2022-12-18T16:47:20;-2.69;83.25
69009;SHT31;56065;52.472;13.380;2022-12-18T16:49:46;-2.69;83.44
69009;SHT31;56065;52.472;13.380;2022-12-18T16:52:12;-2.69;83.20
69009;SHT31;56065;52.472;13.380;2022-12-18T16:54:37;-2.70;83.21
69009;SHT31;56065;52.472;13.380;2022-12-18T16:57:03;-2.71;83.56
69009;SHT31;56065;52.472;13.380;2022-12-18T16:59:30;-2.64;83.02
69009;SHT31;56065;52.472;13.380;2022-12-18T17:01:55;-2.66;82.96
69009;SHT31;56065;52.472;13.380;2022-12-18T17:04:21;-2.74;83.40
69009;SHT31;56065;52.472;13.380;2022-12-18T17:06:47;-2.81;83.27
69009;SHT31;56065;52.472;13.380;2022-12-18T17:09:17;-2.94;83.67
69009;SHT31;56065;52.472;13.380;2022-12-18T17:11:44;-2.90;83.64
69009;SHT31;56065;52.472;13.380;2022-12-18T17:14:12;-2.98;83.77
69009;SHT31;56065;52.472;13.380;2022-12-18T17:16:39;-2.95;83.71
69009;SHT31;56065;52.472;13.380;2022-12-18T17:19:05;-2.93;83.83
69009;SHT31;56065;52.472;13.380;2022-12-18T17:21:30;-2.90;83.70
69009;SHT31;56065;52.472;13.380;2022-12-18T17:23:58;-2.93;83.59
69009;SHT31;56065;52.472;13.380;2022-12-18T17:26:24;-2.93;83.64
69009;SHT31;56065;52.472;13.380;2022-12-18T17:28:49;-2.95;83.69